sensor_id;sensor_type;location;lat;lon;timestamp;P1;durP1;ratioP1;P2;durP2;ratioP2
67751;SDS011;54551;51.068;5.826;2023-05-10T00:02:10;16.40;;;14.80;;
67751;SDS011;54551;51.068;5.826;2023-05-10T00:04:36;16.97;;;15.23;;
67751;SDS011;54551;51.068;5.826;2023-05-10T00:07:02;15.70;;;14.17;;
67751;SDS011;54551;51.068;5.826;2023-05-10T00:09:28;14.97;;;13.47;;
67751;SDS011;54551;51.068;5.826;2023-05-10T00:11:54;14.57;;;13.07;;
67751;SDS011;54551;51.068;5.826;2023-05-10T00:14:20;13.37;;;12.10;;
67751;SDS011;54551;51.068;5.826;2023-05-10T00:16:46;12.93;;;11.73;;
67751;SDS011;54551;51.068;5.826;2023-05-10T00:19:12;13.57;;;12.10;;
67751;SDS011;54551;51.068;5.826;2023-05-10T00:21:37;13.67;;;12.27;;
67751;SDS011;54551;51.068;5.826;2023-05-10T00:24:03;14.30;;;12.80;;
67751;SDS011;54551;51.068;5.826;2023-05-10T00:26:29;13.83;;;12.53;;
67751;SDS011;54551;51.068;5.826;2023-05-10T00:28:55;14.17;;;12.77;;
67751;SDS011;54551;51.068;5.826;2023-05-10T00:31:22;15.13;;;12.60;;
67751;SDS011;54551;51.068;5.826;2023-05-10T00:33:49;14.10;;;12.60;;
67751;SDS011;54551;51.068;5.826;2023-05-10T00:36:15;14.40;;;12.97;;
67751;SDS011;54551;51.068;5.826;2023-05-10T00:38:41;15.73;;;14.07;;
67751;SDS011;54551;51.068;5.826;2023-05-10T00:41:07;14.77;;;13.17;;
67751;SDS011;54551;51.068;5.826;2023-05-10T00:43:34;16.10;;;14.40;;
67751;SDS011;54551;51.068;5.826;2023-05-10T00:46:03;16.77;;;15.03;;
67751;SDS011;54551;51.068;5.826;2023-05-10T00:48:29;17.90;;;15.37;;
67751;SDS011;54551;51.068;5.826;2023-05-10T00:50:55;17.80;;;15.90;;
67751;SDS011;54551;51.068;5.826;2023-05-10T00:53:21;18.43;;;16.50;;
67751;SDS011;54551;51.068;5.826;2023-05-10T00:55:47;17.50;;;15.63;;
67751;SDS011;54551;51.068;5.826;2023-05-10T00:58:13;20.00;;;16.13;;
67751;SDS011;54551;51.068;5.826;2023-05-10T01:00:41;17.80;;;15.90;;
67751;SDS011;54551;51.068;5.826;2023-05-10T01:03:09;17.67;;;15.73;;
67751;SDS011;54551;51.068;5.826;2023-05-10T01:05:36;18.70;;;16.10;;
67751;SDS011;54551;51.068;5.826;2023-05-10T01:08:03;17.67;;;15.40;;
67751;SDS011;54551;51.068;5.826;2023-05-10T01:10:30;17.87;;;15.00;;
67751;SDS011;54551;51.068;5.826;2023-05-10T01:12:56;19.13;;;15.30;;
67751;SDS011;54551;51.068;5.826;2023-05-10T01:15:24;21.20;;;15.13;;
67751;SDS011;54551;51.068;5.826;2023-05-10T01:17:50;20.27;;;16.07;;
67751;SDS011;54551;51.068;5.826;2023-05-10T01:20:17;20.53;;;16.70;;
67751;SDS011;54551;51.068;5.826;2023-05-10T01:23:04;22.40;;;16.40;;
67751;SDS011;54551;51.068;5.826;2023-05-10T01:26:36;18.03;;;15.53;;
67751;SDS011;54551;51.068;5.826;2023-05-10T01:32:25;25.37;;;19.87;;
67751;SDS011;54551;51.068;5.826;2023-05-10T01:35:03;20.47;;;17.50;;
67751;SDS011;54551;51.068;5.826;2023-05-10T01:37:36;23.63;;;17.93;;
67751;SDS011;54551;51.068;5.826;2023-05-10T01:40:08;22.23;;;19.07;;
67751;SDS011;54551;51.068;5.826;2023-05-10T01:42:50;22.77;;;18.70;;
67751;SDS011;54551;51.068;5.826;2023-05-10T01:45:24;26.00;;;20.00;;
67751;SDS011;54551;51.068;5.826;2023-05-10T01:48:08;26.77;;;21.37;;
67751;SDS011;54551;51.068;5.826;2023-05-10T01:50:37;24.40;;;19.87;;
67751;SDS011;54551;51.068;5.826;2023-05-10T01:53:08;24.00;;;20.43;;
67751;SDS011;54551;51.068;5.826;2023-05-10T01:55:39;22.80;;;20.30;;
67751;SDS011;54551;51.068;5.826;2023-05-10T01:58:21;23.60;;;20.27;;
67751;SDS011;54551;51.068;5.826;2023-05-10T02:00:52;22.20;;;19.87;;
67751;SDS011;54551;51.068;5.826;2023-05-10T02:03:20;22.57;;;20.13;;
67751;SDS011;54551;51.068;5.826;2023-05-10T02:05:49;21.77;;;19.27;;
67751;SDS011;54551;51.068;5.826;2023-05-10T02:08:20;22.23;;;19.93;;
67751;SDS011;54551;51.068;5.826;2023-05-10T02:10:48;22.20;;;19.90;;
67751;SDS011;54551;51.068;5.826;2023-05-10T02:13:18;22.30;;;18.70;;
67751;SDS011;54551;51.068;5.826;2023-05-10T02:15:46;24.57;;;20.30;;
67751;SDS011;54551;51.068;5.826;2023-05-10T02:18:14;21.47;;;19.33;;
67751;SDS011;54551;51.068;5.826;2023-05-10T02:20:41;21.47;;;19.27;;
67751;SDS011;54551;51.068;5.826;2023-05-10T02:23:09;21.47;;;19.17;;
67751;SDS011;54551;51.068;5.826;2023-05-10T02:25:36;21.50;;;19.10;;
67751;SDS011;54551;51.068;5.826;2023-05-10T02:28:04;21.17;;;18.07;;
67751;SDS011;54551;51.068;5.826;2023-05-10T02:30:34;23.60;;;18.13;;
67751;SDS011;54551;51.068;5.826;2023-05-10T02:33:01;19.90;;;17.90;;
67751;SDS011;54551;51.068;5.826;2023-05-10T02:35:29;19.80;;;17.70;;
67751;SDS011;54551;51.068;5.826;2023-05-10T02:37:56;18.57;;;15.47;;
67751;SDS011;54551;51.068;5.826;2023-05-10T02:40:23;20.90;;;16.07;;
67751;SDS011;54551;51.068;5.826;2023-05-10T02:42:52;18.63;;;16.37;;
67751;SDS011;54551;51.068;5.826;2023-05-10T02:45:20;18.00;;;14.40;;
67751;SDS011;54551;51.068;5.826;2023-05-10T02:47:50;16.67;;;15.03;;
67751;SDS011;54551;51.068;5.826;2023-05-10T02:50:16;17.83;;;15.07;;
67751;SDS011;54551;51.068;5.826;2023-05-10T02:52:51;16.97;;;15.10;;
67751;SDS011;54551;51.068;5.826;2023-05-10T02:55:25;19.07;;;14.80;;
67751;SDS011;54551;51.068;5.826;2023-05-10T02:58:01;15.53;;;13.97;;
67751;SDS011;54551;51.068;5.826;2023-05-10T03:00:27;17.23;;;13.73;;
67751;SDS011;54551;51.068;5.826;2023-05-10T03:02:54;19.87;;;13.13;;
67751;SDS011;54551;51.068;5.826;2023-05-10T03:05:20;19.37;;;13.80;;
67751;SDS011;54551;51.068;5.826;2023-05-10T03:07:47;19.03;;;14.77;;
67751;SDS011;54551;51.068;5.826;2023-05-10T03:10:13;18.70;;;13.37;;
67751;SDS011;54551;51.068;5.826;2023-05-10T03:18:06;15.47;;;13.10;;
67751;SDS011;54551;51.068;5.826;2023-05-10T03:20:38;20.13;;;14.33;;
67751;SDS011;54551;51.068;5.826;2023-05-10T03:23:11;19.93;;;15.03;;
67751;SDS011;54551;51.068;5.826;2023-05-10T03:25:42;23.30;;;14.60;;
67751;SDS011;54551;51.068;5.826;2023-05-10T03:28:10;17.83;;;14.13;;
67751;SDS011;54551;51.068;5.826;2023-05-10T03:30:37;17.20;;;13.03;;
67751;SDS011;54551;51.068;5.826;2023-05-10T03:33:05;17.10;;;13.93;;
67751;SDS011;54551;51.068;5.826;2023-05-10T03:35:38;17.27;;;13.60;;
67751;SDS011;54551;51.068;5.826;2023-05-10T03:38:05;18.13;;;14.30;;
67751;SDS011;54551;51.068;5.826;2023-05-10T03:40:31;17.83;;;14.83;;
67751;SDS011;54551;51.068;5.826;2023-05-10T03:43:00;17.30;;;13.90;;
67751;SDS011;54551;51.068;5.826;2023-05-10T03:45:26;15.77;;;13.90;;
67751;SDS011;54551;51.068;5.826;2023-05-10T03:47:52;22.40;;;15.47;;
67751;SDS011;54551;51.068;5.826;2023-05-10T03:50:19;23.73;;;15.70;;
67751;SDS011;54551;51.068;5.826;2023-05-10T03:52:46;19.77;;;14.97;;
67751;SDS011;54551;51.068;5.826;2023-05-10T03:55:12;20.00;;;15.47;;
67751;SDS011;54551;51.068;5.826;2023-05-10T03:57:38;20.47;;;15.47;;
67751;SDS011;54551;51.068;5.826;2023-05-10T04:00:06;22.10;;;16.50;;
67751;SDS011;54551;51.068;5.826;2023-05-10T04:02:42;19.30;;;16.07;;
67751;SDS011;54551;51.068;5.826;2023-05-10T04:05:13;21.03;;;15.67;;
67751;SDS011;54551;51.068;5.826;2023-05-10T04:07:38;19.83;;;15.27;;
67751;SDS011;54551;51.068;5.826;2023-05-10T04:10:04;21.47;;;16.77;;
67751;SDS011;54551;51.068;5.826;2023-05-10T04:12:31;25.77;;;17.97;;
67751;SDS011;54551;51.068;5.826;2023-05-10T04:14:57;25.63;;;17.63;;
67751;SDS011;54551;51.068;5.826;2023-05-10T04:17:23;21.80;;;18.13;;
67751;SDS011;54551;51.068;5.826;2023-05-10T04:19:49;22.10;;;18.33;;
67751;SDS011;54551;51.068;5.826;2023-05-10T04:22:18;23.03;;;19.37;;
67751;SDS011;54551;51.068;5.826;2023-05-10T04:24:44;24.10;;;18.43;;
67751;SDS011;54551;51.068;5.826;2023-05-10T04:27:09;27.40;;;19.77;;
67751;SDS011;54551;51.068;5.826;2023-05-10T04:29:39;25.07;;;19.37;;
67751;SDS011;54551;51.068;5.826;2023-05-10T04:32:05;27.53;;;19.97;;
67751;SDS011;54551;51.068;5.826;2023-05-10T04:34:31;26.27;;;19.77;;
67751;SDS011;54551;51.068;5.826;2023-05-10T04:36:59;31.47;;;20.90;;
67751;SDS011;54551;51.068;5.826;2023-05-10T04:39:25;28.03;;;20.93;;
67751;SDS011;54551;51.068;5.826;2023-05-10T04:41:51;27.37;;;20.07;;
67751;SDS011;54551;51.068;5.826;2023-05-10T04:44:16;27.77;;;20.37;;
67751;SDS011;54551;51.068;5.826;2023-05-10T04:46:42;25.70;;;19.23;;
67751;SDS011;54551;51.068;5.826;2023-05-10T04:49:08;28.00;;;20.10;;
67751;SDS011;54551;51.068;5.826;2023-05-10T04:51:34;33.93;;;20.73;;
67751;SDS011;54551;51.068;5.826;2023-05-10T04:54:00;24.73;;;20.33;;
67751;SDS011;54551;51.068;5.826;2023-05-10T04:56:26;31.77;;;22.73;;
67751;SDS011;54551;51.068;5.826;2023-05-10T04:58:52;24.50;;;20.20;;
67751;SDS011;54551;51.068;5.826;2023-05-10T05:01:18;32.63;;;23.17;;
67751;SDS011;54551;51.068;5.826;2023-05-10T05:03:43;28.10;;;22.23;;
67751;SDS011;54551;51.068;5.826;2023-05-10T05:06:09;33.73;;;23.87;;
67751;SDS011;54551;51.068;5.826;2023-05-10T05:08:35;32.10;;;23.20;;
67751;SDS011;54551;51.068;5.826;2023-05-10T05:11:01;36.17;;;24.27;;
67751;SDS011;54551;51.068;5.826;2023-05-10T05:13:27;28.40;;;22.23;;
67751;SDS011;54551;51.068;5.826;2023-05-10T05:15:53;33.37;;;21.83;;
67751;SDS011;54551;51.068;5.826;2023-05-10T05:18:19;27.17;;;21.43;;
67751;SDS011;54551;51.068;5.826;2023-05-10T05:20:45;29.80;;;23.37;;
67751;SDS011;54551;51.068;5.826;2023-05-10T05:23:11;30.43;;;23.40;;
67751;SDS011;54551;51.068;5.826;2023-05-10T05:25:37;29.17;;;23.07;;
67751;SDS011;54551;51.068;5.826;2023-05-10T05:28:03;29.13;;;22.57;;
67751;SDS011;54551;51.068;5.826;2023-05-10T05:30:29;25.53;;;20.87;;
67751;SDS011;54551;51.068;5.826;2023-05-10T05:32:55;27.30;;;21.70;;
67751;SDS011;54551;51.068;5.826;2023-05-10T05:35:21;26.87;;;21.87;;
67751;SDS011;54551;51.068;5.826;2023-05-10T05:37:47;28.90;;;21.57;;
67751;SDS011;54551;51.068;5.826;2023-05-10T05:40:13;25.70;;;21.30;;
67751;SDS011;54551;51.068;5.826;2023-05-10T05:42:39;24.87;;;20.40;;
67751;SDS011;54551;51.068;5.826;2023-05-10T05:45:05;23.60;;;19.40;;
67751;SDS011;54551;51.068;5.826;2023-05-10T05:47:31;25.30;;;21.77;;
67751;SDS011;54551;51.068;5.826;2023-05-10T05:49:57;28.27;;;21.17;;
67751;SDS011;54551;51.068;5.826;2023-05-10T05:52:23;25.00;;;19.97;;
67751;SDS011;54551;51.068;5.826;2023-05-10T05:54:49;27.23;;;21.73;;
67751;SDS011;54551;51.068;5.826;2023-05-10T05:57:15;22.33;;;19.87;;
67751;SDS011;54551;51.068;5.826;2023-05-10T05:59:41;29.87;;;22.03;;
67751;SDS011;54551;51.068;5.826;2023-05-10T06:02:10;25.27;;;19.97;;
67751;SDS011;54551;51.068;5.826;2023-05-10T06:04:36;26.23;;;21.57;;
67751;SDS011;54551;51.068;5.826;2023-05-10T06:07:02;24.77;;;21.17;;
67751;SDS011;54551;51.068;5.826;2023-05-10T06:09:28;24.80;;;20.20;;
67751;SDS011;54551;51.068;5.826;2023-05-10T06:11:54;25.67;;;21.33;;
67751;SDS011;54551;51.068;5.826;2023-05-10T06:14:20;23.67;;;21.00;;
67751;SDS011;54551;51.068;5.826;2023-05-10T06:16:46;26.47;;;21.90;;
67751;SDS011;54551;51.068;5.826;2023-05-10T06:19:12;30.60;;;23.47;;
67751;SDS011;54551;51.068;5.826;2023-05-10T06:21:38;32.40;;;24.47;;
67751;SDS011;54551;51.068;5.826;2023-05-10T06:24:05;35.07;;;27.37;;
67751;SDS011;54551;51.068;5.826;2023-05-10T06:26:32;34.93;;;27.20;;
67751;SDS011;54551;51.068;5.826;2023-05-10T06:28:58;40.63;;;30.60;;
67751;SDS011;54551;51.068;5.826;2023-05-10T06:31:24;39.80;;;31.67;;
67751;SDS011;54551;51.068;5.826;2023-05-10T06:33:49;42.83;;;31.47;;
67751;SDS011;54551;51.068;5.826;2023-05-10T06:36:16;41.37;;;30.93;;
67751;SDS011;54551;51.068;5.826;2023-05-10T06:38:41;37.57;;;30.77;;
67751;SDS011;54551;51.068;5.826;2023-05-10T06:41:07;37.73;;;30.53;;
67751;SDS011;54551;51.068;5.826;2023-05-10T06:43:33;36.57;;;29.67;;
67751;SDS011;54551;51.068;5.826;2023-05-10T06:45:59;37.63;;;30.13;;
67751;SDS011;54551;51.068;5.826;2023-05-10T06:48:25;35.83;;;29.30;;
67751;SDS011;54551;51.068;5.826;2023-05-10T06:50:51;35.30;;;29.03;;
67751;SDS011;54551;51.068;5.826;2023-05-10T06:53:17;34.83;;;28.73;;
67751;SDS011;54551;51.068;5.826;2023-05-10T06:55:43;33.43;;;27.87;;
67751;SDS011;54551;51.068;5.826;2023-05-10T06:58:09;34.83;;;28.80;;
67751;SDS011;54551;51.068;5.826;2023-05-10T07:00:35;35.13;;;28.43;;
67751;SDS011;54551;51.068;5.826;2023-05-10T07:03:05;38.27;;;30.03;;
67751;SDS011;54551;51.068;5.826;2023-05-10T07:05:31;36.47;;;29.90;;
67751;SDS011;54551;51.068;5.826;2023-05-10T07:07:57;35.23;;;29.47;;
67751;SDS011;54551;51.068;5.826;2023-05-10T07:10:23;38.63;;;29.80;;
67751;SDS011;54551;51.068;5.826;2023-05-10T07:12:49;34.27;;;28.73;;
67751;SDS011;54551;51.068;5.826;2023-05-10T07:15:15;34.83;;;27.07;;
67751;SDS011;54551;51.068;5.826;2023-05-10T07:17:41;33.07;;;28.17;;
67751;SDS011;54551;51.068;5.826;2023-05-10T07:20:07;29.30;;;25.93;;
67751;SDS011;54551;51.068;5.826;2023-05-10T07:22:33;29.37;;;26.13;;
67751;SDS011;54551;51.068;5.826;2023-05-10T07:24:59;30.47;;;25.53;;
67751;SDS011;54551;51.068;5.826;2023-05-10T07:27:25;31.13;;;25.63;;
67751;SDS011;54551;51.068;5.826;2023-05-10T07:29:51;29.77;;;25.53;;
67751;SDS011;54551;51.068;5.826;2023-05-10T07:32:17;31.93;;;26.30;;
67751;SDS011;54551;51.068;5.826;2023-05-10T07:34:43;31.80;;;26.60;;
67751;SDS011;54551;51.068;5.826;2023-05-10T07:37:08;33.30;;;26.63;;
67751;SDS011;54551;51.068;5.826;2023-05-10T07:39:34;34.07;;;26.53;;
67751;SDS011;54551;51.068;5.826;2023-05-10T07:42:00;32.23;;;26.10;;
67751;SDS011;54551;51.068;5.826;2023-05-10T07:44:26;30.10;;;24.87;;
67751;SDS011;54551;51.068;5.826;2023-05-10T07:46:52;37.80;;;26.93;;
67751;SDS011;54551;51.068;5.826;2023-05-10T07:49:18;32.50;;;26.00;;
67751;SDS011;54551;51.068;5.826;2023-05-10T07:51:44;35.50;;;27.43;;
67751;SDS011;54551;51.068;5.826;2023-05-10T07:54:10;32.87;;;25.80;;
67751;SDS011;54551;51.068;5.826;2023-05-10T07:56:35;35.70;;;25.40;;
67751;SDS011;54551;51.068;5.826;2023-05-10T07:59:02;33.53;;;25.37;;
67751;SDS011;54551;51.068;5.826;2023-05-10T08:01:32;31.67;;;23.40;;
67751;SDS011;54551;51.068;5.826;2023-05-10T08:04:00;32.57;;;23.47;;
67751;SDS011;54551;51.068;5.826;2023-05-10T08:06:26;33.37;;;24.63;;
67751;SDS011;54551;51.068;5.826;2023-05-10T08:08:55;33.60;;;23.43;;
67751;SDS011;54551;51.068;5.826;2023-05-10T08:11:21;32.97;;;23.40;;
67751;SDS011;54551;51.068;5.826;2023-05-10T08:13:48;33.07;;;22.73;;
67751;SDS011;54551;51.068;5.826;2023-05-10T08:16:15;28.47;;;22.30;;
67751;SDS011;54551;51.068;5.826;2023-05-10T08:18:43;27.90;;;20.93;;
67751;SDS011;54551;51.068;5.826;2023-05-10T08:21:10;28.47;;;21.20;;
67751;SDS011;54551;51.068;5.826;2023-05-10T08:23:36;26.63;;;21.23;;
67751;SDS011;54551;51.068;5.826;2023-05-10T08:26:02;28.03;;;21.73;;
67751;SDS011;54551;51.068;5.826;2023-05-10T08:28:28;29.17;;;21.00;;
67751;SDS011;54551;51.068;5.826;2023-05-10T08:30:55;27.07;;;20.50;;
67751;SDS011;54551;51.068;5.826;2023-05-10T08:33:21;26.03;;;20.80;;
67751;SDS011;54551;51.068;5.826;2023-05-10T08:35:47;25.67;;;19.87;;
67751;SDS011;54551;51.068;5.826;2023-05-10T08:38:13;28.73;;;21.33;;
67751;SDS011;54551;51.068;5.826;2023-05-10T08:40:43;27.10;;;21.30;;
67751;SDS011;54551;51.068;5.826;2023-05-10T08:43:12;27.93;;;21.80;;
67751;SDS011;54551;51.068;5.826;2023-05-10T08:45:43;26.63;;;21.00;;
67751;SDS011;54551;51.068;5.826;2023-05-10T08:48:13;25.60;;;20.47;;
67751;SDS011;54551;51.068;5.826;2023-05-10T08:50:41;25.17;;;20.73;;
67751;SDS011;54551;51.068;5.826;2023-05-10T08:53:12;27.10;;;20.97;;
67751;SDS011;54551;51.068;5.826;2023-05-10T08:55:39;25.57;;;20.00;;
67751;SDS011;54551;51.068;5.826;2023-05-10T08:58:07;24.50;;;20.53;;
67751;SDS011;54551;51.068;5.826;2023-05-10T09:00:34;28.30;;;21.60;;
67751;SDS011;54551;51.068;5.826;2023-05-10T09:03:03;24.70;;;20.73;;
67751;SDS011;54551;51.068;5.826;2023-05-10T09:05:30;25.87;;;21.07;;
67751;SDS011;54551;51.068;5.826;2023-05-10T09:07:56;29.00;;;21.17;;
67751;SDS011;54551;51.068;5.826;2023-05-10T09:10:22;22.17;;;18.43;;
67751;SDS011;54551;51.068;5.826;2023-05-10T09:12:51;24.63;;;20.07;;
67751;SDS011;54551;51.068;5.826;2023-05-10T09:15:17;24.33;;;19.23;;
67751;SDS011;54551;51.068;5.826;2023-05-10T09:17:45;22.27;;;17.87;;
67751;SDS011;54551;51.068;5.826;2023-05-10T09:20:12;20.43;;;17.03;;
67751;SDS011;54551;51.068;5.826;2023-05-10T09:22:38;20.27;;;16.83;;
67751;SDS011;54551;51.068;5.826;2023-05-10T09:27:36;18.93;;;16.57;;
67751;SDS011;54551;51.068;5.826;2023-05-10T09:30:03;18.57;;;16.47;;
67751;SDS011;54551;51.068;5.826;2023-05-10T09:32:37;17.77;;;15.30;;
67751;SDS011;54551;51.068;5.826;2023-05-10T09:37:41;18.30;;;16.40;;
67751;SDS011;54551;51.068;5.826;2023-05-10T09:40:11;16.33;;;14.67;;
67751;SDS011;54551;51.068;5.826;2023-05-10T09:42:38;15.77;;;14.17;;
67751;SDS011;54551;51.068;5.826;2023-05-10T09:45:04;16.77;;;15.17;;
67751;SDS011;54551;51.068;5.826;2023-05-10T09:47:34;16.90;;;15.07;;
67751;SDS011;54551;51.068;5.826;2023-05-10T09:50:01;16.13;;;14.57;;
67751;SDS011;54551;51.068;5.826;2023-05-10T09:52:29;15.30;;;13.70;;
67751;SDS011;54551;51.068;5.826;2023-05-10T09:54:56;18.33;;;13.07;;
67751;SDS011;54551;51.068;5.826;2023-05-10T09:57:22;12.93;;;11.63;;
67751;SDS011;54551;51.068;5.826;2023-05-10T09:59:49;12.83;;;11.53;;
67751;SDS011;54551;51.068;5.826;2023-05-10T10:02:16;10.87;;;9.87;;
67751;SDS011;54551;51.068;5.826;2023-05-10T10:04:42;10.73;;;9.63;;
67751;SDS011;54551;51.068;5.826;2023-05-10T10:07:08;11.27;;;10.10;;
67751;SDS011;54551;51.068;5.826;2023-05-10T10:09:34;10.60;;;9.63;;
67751;SDS011;54551;51.068;5.826;2023-05-10T10:12:01;9.80;;;8.87;;
67751;SDS011;54551;51.068;5.826;2023-05-10T10:14:30;10.47;;;9.57;;
67751;SDS011;54551;51.068;5.826;2023-05-10T10:16:57;10.43;;;9.30;;
67751;SDS011;54551;51.068;5.826;2023-05-10T10:19:25;10.63;;;9.67;;
67751;SDS011;54551;51.068;5.826;2023-05-10T10:21:52;11.63;;;10.53;;
67751;SDS011;54551;51.068;5.826;2023-05-10T10:24:18;11.33;;;10.27;;
67751;SDS011;54551;51.068;5.826;2023-05-10T10:26:44;11.40;;;10.20;;
67751;SDS011;54551;51.068;5.826;2023-05-10T10:29:20;11.93;;;10.93;;
67751;SDS011;54551;51.068;5.826;2023-05-10T10:34:32;11.47;;;10.47;;
67751;SDS011;54551;51.068;5.826;2023-05-10T10:37:03;11.73;;;10.70;;
67751;SDS011;54551;51.068;5.826;2023-05-10T10:39:30;13.43;;;12.00;;
67751;SDS011;54551;51.068;5.826;2023-05-10T10:41:57;12.87;;;11.43;;
67751;SDS011;54551;51.068;5.826;2023-05-10T10:47:06;12.03;;;10.90;;
67751;SDS011;54551;51.068;5.826;2023-05-10T10:49:51;10.70;;;9.70;;
67751;SDS011;54551;51.068;5.826;2023-05-10T10:52:28;10.63;;;9.63;;
67751;SDS011;54551;51.068;5.826;2023-05-10T10:55:13;11.27;;;10.17;;
67751;SDS011;54551;51.068;5.826;2023-05-10T11:07:52;9.47;;;8.57;;
67751;SDS011;54551;51.068;5.826;2023-05-10T11:10:20;8.40;;;7.70;;
67751;SDS011;54551;51.068;5.826;2023-05-10T11:12:53;8.03;;;7.33;;
67751;SDS011;54551;51.068;5.826;2023-05-10T11:15:32;7.40;;;6.80;;
67751;SDS011;54551;51.068;5.826;2023-05-10T11:17:59;7.73;;;7.03;;
67751;SDS011;54551;51.068;5.826;2023-05-10T11:20:28;8.10;;;7.40;;
67751;SDS011;54551;51.068;5.826;2023-05-10T11:23:13;7.27;;;6.57;;
67751;SDS011;54551;51.068;5.826;2023-05-10T11:25:47;6.57;;;6.00;;
67751;SDS011;54551;51.068;5.826;2023-05-10T11:28:14;7.17;;;6.57;;
67751;SDS011;54551;51.068;5.826;2023-05-10T11:30:43;7.83;;;7.13;;
67751;SDS011;54551;51.068;5.826;2023-05-10T11:33:14;8.10;;;7.50;;
67751;SDS011;54551;51.068;5.826;2023-05-10T11:35:42;7.83;;;7.10;;
67751;SDS011;54551;51.068;5.826;2023-05-10T11:38:08;6.80;;;6.13;;
67751;SDS011;54551;51.068;5.826;2023-05-10T11:40:38;7.00;;;6.40;;
67751;SDS011;54551;51.068;5.826;2023-05-10T11:43:05;8.37;;;7.13;;
67751;SDS011;54551;51.068;5.826;2023-05-10T11:45:32;8.30;;;7.60;;
67751;SDS011;54551;51.068;5.826;2023-05-10T11:47:58;7.70;;;7.00;;
67751;SDS011;54551;51.068;5.826;2023-05-10T11:50:25;7.70;;;7.00;;
67751;SDS011;54551;51.068;5.826;2023-05-10T11:52:52;8.23;;;7.53;;
67751;SDS011;54551;51.068;5.826;2023-05-10T11:55:18;9.00;;;7.47;;
67751;SDS011;54551;51.068;5.826;2023-05-10T11:57:44;8.53;;;7.77;;
67751;SDS011;54551;51.068;5.826;2023-05-10T12:00:14;8.27;;;7.47;;
67751;SDS011;54551;51.068;5.826;2023-05-10T12:02:41;11.07;;;8.70;;
67751;SDS011;54551;51.068;5.826;2023-05-10T12:05:07;9.90;;;8.87;;
67751;SDS011;54551;51.068;5.826;2023-05-10T12:07:34;10.30;;;8.87;;
67751;SDS011;54551;51.068;5.826;2023-05-10T12:12:43;10.33;;;8.63;;
67751;SDS011;54551;51.068;5.826;2023-05-10T12:15:18;10.07;;;8.40;;
67751;SDS011;54551;51.068;5.826;2023-05-10T12:17:45;11.07;;;8.80;;
67751;SDS011;54551;51.068;5.826;2023-05-10T12:20:12;10.47;;;9.47;;
67751;SDS011;54551;51.068;5.826;2023-05-10T12:22:49;10.40;;;9.43;;
67751;SDS011;54551;51.068;5.826;2023-05-10T12:25:16;13.07;;;9.00;;
67751;SDS011;54551;51.068;5.826;2023-05-10T12:27:48;9.53;;;8.73;;
67751;SDS011;54551;51.068;5.826;2023-05-10T12:30:19;11.93;;;10.73;;
67751;SDS011;54551;51.068;5.826;2023-05-10T12:32:49;10.17;;;9.37;;
67751;SDS011;54551;51.068;5.826;2023-05-10T12:35:15;9.67;;;8.77;;
67751;SDS011;54551;51.068;5.826;2023-05-10T12:37:42;8.57;;;7.77;;
67751;SDS011;54551;51.068;5.826;2023-05-10T12:40:09;9.87;;;8.93;;
67751;SDS011;54551;51.068;5.826;2023-05-10T12:42:36;8.30;;;7.50;;
67751;SDS011;54551;51.068;5.826;2023-05-10T12:45:04;8.83;;;8.03;;
67751;SDS011;54551;51.068;5.826;2023-05-10T12:47:31;9.13;;;8.30;;
67751;SDS011;54551;51.068;5.826;2023-05-10T12:49:59;8.20;;;7.40;;
67751;SDS011;54551;51.068;5.826;2023-05-10T12:52:26;8.37;;;7.33;;
67751;SDS011;54551;51.068;5.826;2023-05-10T12:54:52;7.93;;;7.23;;
67751;SDS011;54551;51.068;5.826;2023-05-10T12:57:19;8.23;;;7.43;;
67751;SDS011;54551;51.068;5.826;2023-05-10T12:59:46;7.93;;;7.10;;
67751;SDS011;54551;51.068;5.826;2023-05-10T13:02:12;8.80;;;6.53;;
67751;SDS011;54551;51.068;5.826;2023-05-10T13:04:38;8.60;;;7.90;;
67751;SDS011;54551;51.068;5.826;2023-05-10T13:07:07;10.03;;;8.07;;
67751;SDS011;54551;51.068;5.826;2023-05-10T13:09:34;8.40;;;7.70;;
67751;SDS011;54551;51.068;5.826;2023-05-10T13:12:00;7.83;;;7.13;;
67751;SDS011;54551;51.068;5.826;2023-05-10T13:14:26;9.17;;;7.73;;
67751;SDS011;54551;51.068;5.826;2023-05-10T13:16:52;8.97;;;8.07;;
67751;SDS011;54551;51.068;5.826;2023-05-10T13:19:18;8.63;;;7.87;;
67751;SDS011;54551;51.068;5.826;2023-05-10T13:21:45;8.10;;;7.40;;
67751;SDS011;54551;51.068;5.826;2023-05-10T13:24:11;7.53;;;6.83;;
67751;SDS011;54551;51.068;5.826;2023-05-10T13:26:39;8.10;;;7.30;;
67751;SDS011;54551;51.068;5.826;2023-05-10T13:29:06;7.22;;;6.53;;
67751;SDS011;54551;51.068;5.826;2023-05-10T13:31:33;7.97;;;6.87;;
67751;SDS011;54551;51.068;5.826;2023-05-10T13:33:59;8.07;;;7.37;;
67751;SDS011;54551;51.068;5.826;2023-05-10T13:36:25;8.30;;;7.60;;
67751;SDS011;54551;51.068;5.826;2023-05-10T13:38:51;7.83;;;7.13;;
67751;SDS011;54551;51.068;5.826;2023-05-10T13:41:17;7.63;;;6.90;;
67751;SDS011;54551;51.068;5.826;2023-05-10T13:43:43;7.33;;;6.50;;
67751;SDS011;54551;51.068;5.826;2023-05-10T13:46:09;8.93;;;6.87;;
67751;SDS011;54551;51.068;5.826;2023-05-10T13:48:35;7.30;;;6.60;;
67751;SDS011;54551;51.068;5.826;2023-05-10T13:51:03;7.30;;;6.30;;
67751;SDS011;54551;51.068;5.826;2023-05-10T13:53:29;6.77;;;6.13;;
67751;SDS011;54551;51.068;5.826;2023-05-10T13:55:55;6.97;;;6.37;;
67751;SDS011;54551;51.068;5.826;2023-05-10T13:58:21;7.27;;;5.80;;
67751;SDS011;54551;51.068;5.826;2023-05-10T14:00:47;7.13;;;6.20;;
67751;SDS011;54551;51.068;5.826;2023-05-10T14:03:13;6.67;;;6.07;;
67751;SDS011;54551;51.068;5.826;2023-05-10T14:05:39;7.00;;;6.37;;
67751;SDS011;54551;51.068;5.826;2023-05-10T14:08:05;7.60;;;6.70;;
67751;SDS011;54551;51.068;5.826;2023-05-10T14:10:30;7.57;;;6.73;;
67751;SDS011;54551;51.068;5.826;2023-05-10T14:12:56;7.53;;;6.47;;
67751;SDS011;54551;51.068;5.826;2023-05-10T14:15:22;6.70;;;6.00;;
67751;SDS011;54551;51.068;5.826;2023-05-10T14:17:48;7.20;;;6.47;;
67751;SDS011;54551;51.068;5.826;2023-05-10T14:20:14;5.97;;;5.37;;
67751;SDS011;54551;51.068;5.826;2023-05-10T14:22:40;5.40;;;4.90;;
67751;SDS011;54551;51.068;5.826;2023-05-10T14:25:06;5.07;;;4.67;;
67751;SDS011;54551;51.068;5.826;2023-05-10T14:27:32;5.77;;;5.20;;
67751;SDS011;54551;51.068;5.826;2023-05-10T14:29:58;5.60;;;5.03;;
67751;SDS011;54551;51.068;5.826;2023-05-10T14:32:24;6.20;;;5.57;;
67751;SDS011;54551;51.068;5.826;2023-05-10T14:34:52;5.47;;;4.97;;
67751;SDS011;54551;51.068;5.826;2023-05-10T14:37:17;5.53;;;4.93;;
67751;SDS011;54551;51.068;5.826;2023-05-10T14:39:43;6.20;;;5.00;;
67751;SDS011;54551;51.068;5.826;2023-05-10T14:42:09;4.50;;;4.03;;
67751;SDS011;54551;51.068;5.826;2023-05-10T14:44:35;5.67;;;5.03;;
67751;SDS011;54551;51.068;5.826;2023-05-10T14:47:01;5.70;;;5.20;;
67751;SDS011;54551;51.068;5.826;2023-05-10T14:49:27;4.83;;;4.33;;
67751;SDS011;54551;51.068;5.826;2023-05-10T14:51:54;4.07;;;3.60;;
67751;SDS011;54551;51.068;5.826;2023-05-10T14:54:20;4.70;;;4.00;;
67751;SDS011;54551;51.068;5.826;2023-05-10T14:56:46;5.20;;;4.53;;
67751;SDS011;54551;51.068;5.826;2023-05-10T14:59:15;3.70;;;3.40;;
67751;SDS011;54551;51.068;5.826;2023-05-10T15:01:41;3.37;;;3.07;;
67751;SDS011;54551;51.068;5.826;2023-05-10T15:04:07;3.37;;;3.07;;